sensor_id;sensor_type;location;lat;lon;timestamp;P1;durP1;ratioP1;P2;durP2;ratioP2
60665;SDS011;59128;44.642;21.188;2023-01-31T00:02:00;133.23;;;87.55;;
60665;SDS011;59128;44.642;21.188;2023-01-31T00:04:26;116.63;;;77.80;;
60665;SDS011;59128;44.642;21.188;2023-01-31T00:06:52;111.22;;;73.18;;
60665;SDS011;59128;44.642;21.188;2023-01-31T00:09:18;114.68;;;73.80;;
60665;SDS011;59128;44.642;21.188;2023-01-31T00:11:44;104.80;;;68.88;;
60665;SDS011;59128;44.642;21.188;2023-01-31T00:14:10;104.85;;;68.43;;
60665;SDS011;59128;44.642;21.188;2023-01-31T00:16:39;101.05;;;67.45;;
60665;SDS011;59128;44.642;21.188;2023-01-31T00:19:05;115.85;;;75.90;;
60665;SDS011;59128;44.642;21.188;2023-01-31T00:21:31;103.45;;;69.43;;
60665;SDS011;59128;44.642;21.188;2023-01-31T00:23:57;105.72;;;71.05;;
60665;SDS011;59128;44.642;21.188;2023-01-31T00:26:25;118.97;;;79.90;;
60665;SDS011;59128;44.642;21.188;2023-01-31T00:28:52;103.63;;;69.32;;
60665;SDS011;59128;44.642;21.188;2023-01-31T00:31:19;102.90;;;72.03;;
60665;SDS011;59128;44.642;21.188;2023-01-31T00:33:45;105.30;;;73.32;;
60665;SDS011;59128;44.642;21.188;2023-01-31T00:36:12;114.97;;;78.22;;
60665;SDS011;59128;44.642;21.188;2023-01-31T00:38:39;104.00;;;69.53;;
60665;SDS011;59128;44.642;21.188;2023-01-31T00:41:08;107.38;;;72.93;;
60665;SDS011;59128;44.642;21.188;2023-01-31T00:43:35;98.78;;;66.60;;
60665;SDS011;59128;44.642;21.188;2023-01-31T00:46:01;119.17;;;83.33;;
60665;SDS011;59128;44.642;21.188;2023-01-31T00:48:27;97.75;;;67.03;;
60665;SDS011;59128;44.642;21.188;2023-01-31T00:50:53;88.28;;;59.83;;
60665;SDS011;59128;44.642;21.188;2023-01-31T00:53:19;84.13;;;56.15;;
60665;SDS011;59128;44.642;21.188;2023-01-31T00:55:55;88.28;;;60.90;;
60665;SDS011;59128;44.642;21.188;2023-01-31T00:58:26;88.60;;;59.50;;
60665;SDS011;59128;44.642;21.188;2023-01-31T01:00:52;99.53;;;69.00;;
60665;SDS011;59128;44.642;21.188;2023-01-31T01:03:18;98.15;;;66.85;;
60665;SDS011;59128;44.642;21.188;2023-01-31T01:05:44;92.30;;;64.13;;
60665;SDS011;59128;44.642;21.188;2023-01-31T01:08:10;91.55;;;62.33;;
60665;SDS011;59128;44.642;21.188;2023-01-31T01:10:36;93.20;;;62.85;;
60665;SDS011;59128;44.642;21.188;2023-01-31T01:13:02;98.40;;;66.50;;
60665;SDS011;59128;44.642;21.188;2023-01-31T01:15:29;99.05;;;66.72;;
60665;SDS011;59128;44.642;21.188;2023-01-31T01:17:55;95.03;;;63.03;;
60665;SDS011;59128;44.642;21.188;2023-01-31T01:20:22;90.95;;;62.08;;
60665;SDS011;59128;44.642;21.188;2023-01-31T01:22:48;89.00;;;62.83;;
60665;SDS011;59128;44.642;21.188;2023-01-31T01:25:14;100.15;;;68.38;;
60665;SDS011;59128;44.642;21.188;2023-01-31T01:27:40;98.13;;;67.40;;
60665;SDS011;59128;44.642;21.188;2023-01-31T01:30:06;100.57;;;70.47;;
60665;SDS011;59128;44.642;21.188;2023-01-31T01:32:32;101.97;;;72.47;;
60665;SDS011;59128;44.642;21.188;2023-01-31T01:34:58;97.72;;;68.82;;
60665;SDS011;59128;44.642;21.188;2023-01-31T01:37:24;89.60;;;64.50;;
60665;SDS011;59128;44.642;21.188;2023-01-31T01:39:51;88.95;;;62.05;;
60665;SDS011;59128;44.642;21.188;2023-01-31T01:42:18;85.05;;;57.15;;
60665;SDS011;59128;44.642;21.188;2023-01-31T01:49:39;78.68;;;53.33;;
60665;SDS011;59128;44.642;21.188;2023-01-31T01:52:06;74.10;;;50.13;;
60665;SDS011;59128;44.642;21.188;2023-01-31T01:54:34;76.22;;;50.25;;
60665;SDS011;59128;44.642;21.188;2023-01-31T01:57:02;74.20;;;50.05;;
60665;SDS011;59128;44.642;21.188;2023-01-31T01:59:31;77.50;;;52.28;;
60665;SDS011;59128;44.642;21.188;2023-01-31T02:01:58;80.50;;;54.13;;
60665;SDS011;59128;44.642;21.188;2023-01-31T02:04:26;80.43;;;53.83;;
60665;SDS011;59128;44.642;21.188;2023-01-31T02:06:53;84.53;;;56.10;;
60665;SDS011;59128;44.642;21.188;2023-01-31T02:12:17;93.70;;;62.70;;
60665;SDS011;59128;44.642;21.188;2023-01-31T02:14:44;96.65;;;66.97;;
60665;SDS011;59128;44.642;21.188;2023-01-31T02:17:12;102.68;;;69.68;;
60665;SDS011;59128;44.642;21.188;2023-01-31T02:30:49;85.40;;;57.53;;
60665;SDS011;59128;44.642;21.188;2023-01-31T02:33:29;74.15;;;52.70;;
60665;SDS011;59128;44.642;21.188;2023-01-31T02:36:13;76.43;;;53.65;;
60665;SDS011;59128;44.642;21.188;2023-01-31T02:39:05;77.93;;;53.70;;
60665;SDS011;59128;44.642;21.188;2023-01-31T02:44:19;75.18;;;52.45;;
60665;SDS011;59128;44.642;21.188;2023-01-31T02:47:09;74.05;;;51.00;;
60665;SDS011;59128;44.642;21.188;2023-01-31T02:54:51;69.90;;;48.60;;
60665;SDS011;59128;44.642;21.188;2023-01-31T02:57:38;66.50;;;45.03;;
60665;SDS011;59128;44.642;21.188;2023-01-31T03:00:05;67.45;;;46.60;;
60665;SDS011;59128;44.642;21.188;2023-01-31T03:05:10;63.15;;;43.38;;
60665;SDS011;59128;44.642;21.188;2023-01-31T03:07:37;62.75;;;42.20;;
60665;SDS011;59128;44.642;21.188;2023-01-31T03:11:04;58.80;;;41.13;;
60665;SDS011;59128;44.642;21.188;2023-01-31T03:15:40;62.38;;;42.45;;
60665;SDS011;59128;44.642;21.188;2023-01-31T03:18:27;64.22;;;44.40;;
60665;SDS011;59128;44.642;21.188;2023-01-31T03:20:57;66.93;;;46.78;;
60665;SDS011;59128;44.642;21.188;2023-01-31T03:23:26;62.17;;;43.00;;
60665;SDS011;59128;44.642;21.188;2023-01-31T03:25:55;59.58;;;41.22;;
60665;SDS011;59128;44.642;21.188;2023-01-31T03:28:25;61.97;;;42.67;;
60665;SDS011;59128;44.642;21.188;2023-01-31T03:30:58;66.25;;;45.40;;
60665;SDS011;59128;44.642;21.188;2023-01-31T03:33:27;66.82;;;46.50;;
60665;SDS011;59128;44.642;21.188;2023-01-31T03:35:56;68.80;;;46.35;;
60665;SDS011;59128;44.642;21.188;2023-01-31T03:38:25;64.20;;;44.30;;
60665;SDS011;59128;44.642;21.188;2023-01-31T03:40:55;63.83;;;44.00;;
60665;SDS011;59128;44.642;21.188;2023-01-31T03:43:24;63.25;;;44.50;;
60665;SDS011;59128;44.642;21.188;2023-01-31T03:45:57;57.33;;;39.97;;
60665;SDS011;59128;44.642;21.188;2023-01-31T03:48:25;53.57;;;35.63;;
60665;SDS011;59128;44.642;21.188;2023-01-31T03:50:55;35.67;;;24.98;;
60665;SDS011;59128;44.642;21.188;2023-01-31T03:55:51;23.70;;;17.52;;
60665;SDS011;59128;44.642;21.188;2023-01-31T03:58:18;22.77;;;16.52;;
60665;SDS011;59128;44.642;21.188;2023-01-31T04:00:44;22.27;;;15.83;;
60665;SDS011;59128;44.642;21.188;2023-01-31T04:05:49;21.40;;;15.32;;
60665;SDS011;59128;44.642;21.188;2023-01-31T04:08:15;20.90;;;15.00;;
60665;SDS011;59128;44.642;21.188;2023-01-31T04:10:41;21.15;;;15.93;;
60665;SDS011;59128;44.642;21.188;2023-01-31T04:13:08;20.88;;;14.50;;
60665;SDS011;59128;44.642;21.188;2023-01-31T04:15:34;20.15;;;14.25;;
60665;SDS011;59128;44.642;21.188;2023-01-31T04:18:00;20.35;;;14.48;;
60665;SDS011;59128;44.642;21.188;2023-01-31T04:20:26;19.13;;;13.80;;
60665;SDS011;59128;44.642;21.188;2023-01-31T04:22:52;18.63;;;13.40;;
60665;SDS011;59128;44.642;21.188;2023-01-31T04:25:18;17.73;;;13.18;;
60665;SDS011;59128;44.642;21.188;2023-01-31T04:27:44;18.20;;;13.40;;
60665;SDS011;59128;44.642;21.188;2023-01-31T04:30:10;16.73;;;11.90;;
60665;SDS011;59128;44.642;21.188;2023-01-31T04:32:36;17.55;;;13.07;;
60665;SDS011;59128;44.642;21.188;2023-01-31T04:35:02;17.63;;;13.27;;
60665;SDS011;59128;44.642;21.188;2023-01-31T04:37:28;17.27;;;12.98;;
60665;SDS011;59128;44.642;21.188;2023-01-31T04:39:54;17.95;;;13.40;;
60665;SDS011;59128;44.642;21.188;2023-01-31T04:42:20;18.35;;;13.27;;
60665;SDS011;59128;44.642;21.188;2023-01-31T04:44:46;17.27;;;12.75;;
60665;SDS011;59128;44.642;21.188;2023-01-31T04:47:13;17.98;;;12.95;;
60665;SDS011;59128;44.642;21.188;2023-01-31T04:49:39;17.20;;;13.23;;
60665;SDS011;59128;44.642;21.188;2023-01-31T04:52:05;19.42;;;13.32;;
60665;SDS011;59128;44.642;21.188;2023-01-31T04:54:31;17.50;;;12.90;;
60665;SDS011;59128;44.642;21.188;2023-01-31T04:56:57;17.23;;;12.35;;
60665;SDS011;59128;44.642;21.188;2023-01-31T04:59:23;15.67;;;12.23;;
60665;SDS011;59128;44.642;21.188;2023-01-31T05:01:49;17.55;;;12.55;;
60665;SDS011;59128;44.642;21.188;2023-01-31T05:04:15;17.08;;;12.50;;
60665;SDS011;59128;44.642;21.188;2023-01-31T05:06:41;16.48;;;12.13;;
60665;SDS011;59128;44.642;21.188;2023-01-31T05:09:07;16.05;;;11.85;;
60665;SDS011;59128;44.642;21.188;2023-01-31T05:11:33;15.75;;;11.65;;
60665;SDS011;59128;44.642;21.188;2023-01-31T05:13:59;15.35;;;11.35;;
60665;SDS011;59128;44.642;21.188;2023-01-31T05:16:25;14.70;;;11.48;;
60665;SDS011;59128;44.642;21.188;2023-01-31T05:18:51;15.73;;;11.15;;
60665;SDS011;59128;44.642;21.188;2023-01-31T05:21:17;14.32;;;10.52;;
60665;SDS011;59128;44.642;21.188;2023-01-31T05:23:43;15.93;;;11.43;;
60665;SDS011;59128;44.642;21.188;2023-01-31T05:26:09;15.88;;;11.15;;
60665;SDS011;59128;44.642;21.188;2023-01-31T05:28:35;16.00;;;11.50;;
60665;SDS011;59128;44.642;21.188;2023-01-31T05:31:03;15.93;;;11.25;;
60665;SDS011;59128;44.642;21.188;2023-01-31T05:33:29;14.07;;;10.75;;
60665;SDS011;59128;44.642;21.188;2023-01-31T05:35:58;14.82;;;11.05;;
60665;SDS011;59128;44.642;21.188;2023-01-31T05:38:24;15.48;;;10.85;;
60665;SDS011;59128;44.642;21.188;2023-01-31T05:40:50;14.23;;;11.13;;
60665;SDS011;59128;44.642;21.188;2023-01-31T05:43:16;15.85;;;11.27;;
60665;SDS011;59128;44.642;21.188;2023-01-31T05:45:43;15.32;;;11.32;;
60665;SDS011;59128;44.642;21.188;2023-01-31T05:48:09;15.23;;;10.98;;
60665;SDS011;59128;44.642;21.188;2023-01-31T05:50:36;15.25;;;11.02;;
60665;SDS011;59128;44.642;21.188;2023-01-31T05:53:02;15.97;;;11.67;;
60665;SDS011;59128;44.642;21.188;2023-01-31T05:55:28;16.38;;;12.43;;
60665;SDS011;59128;44.642;21.188;2023-01-31T05:57:54;17.13;;;12.35;;
60665;SDS011;59128;44.642;21.188;2023-01-31T06:00:20;17.30;;;12.30;;
60665;SDS011;59128;44.642;21.188;2023-01-31T06:02:47;16.17;;;12.13;;
60665;SDS011;59128;44.642;21.188;2023-01-31T06:05:13;15.53;;;12.27;;
60665;SDS011;59128;44.642;21.188;2023-01-31T06:07:39;16.27;;;12.40;;
60665;SDS011;59128;44.642;21.188;2023-01-31T06:10:06;16.90;;;12.90;;
60665;SDS011;59128;44.642;21.188;2023-01-31T06:12:33;16.90;;;12.77;;
60665;SDS011;59128;44.642;21.188;2023-01-31T06:14:59;17.55;;;12.75;;
60665;SDS011;59128;44.642;21.188;2023-01-31T06:17:25;17.77;;;13.17;;
60665;SDS011;59128;44.642;21.188;2023-01-31T06:19:51;18.45;;;13.13;;
60665;SDS011;59128;44.642;21.188;2023-01-31T06:22:17;17.47;;;13.07;;
60665;SDS011;59128;44.642;21.188;2023-01-31T06:24:44;17.48;;;13.05;;
60665;SDS011;59128;44.642;21.188;2023-01-31T06:27:10;17.30;;;13.13;;
60665;SDS011;59128;44.642;21.188;2023-01-31T06:29:36;17.67;;;12.65;;
60665;SDS011;59128;44.642;21.188;2023-01-31T06:32:02;16.10;;;11.77;;
60665;SDS011;59128;44.642;21.188;2023-01-31T06:34:28;12.70;;;9.47;;
60665;SDS011;59128;44.642;21.188;2023-01-31T06:36:54;13.38;;;9.20;;
60665;SDS011;59128;44.642;21.188;2023-01-31T06:39:20;11.20;;;8.75;;
60665;SDS011;59128;44.642;21.188;2023-01-31T06:41:46;12.60;;;8.65;;
60665;SDS011;59128;44.642;21.188;2023-01-31T06:44:12;11.63;;;8.10;;
60665;SDS011;59128;44.642;21.188;2023-01-31T06:46:38;10.63;;;7.97;;
60665;SDS011;59128;44.642;21.188;2023-01-31T06:49:04;10.60;;;7.80;;
60665;SDS011;59128;44.642;21.188;2023-01-31T06:51:30;11.70;;;8.00;;
60665;SDS011;59128;44.642;21.188;2023-01-31T06:53:56;10.93;;;7.85;;
60665;SDS011;59128;44.642;21.188;2023-01-31T06:56:22;10.80;;;8.20;;
60665;SDS011;59128;44.642;21.188;2023-01-31T06:58:48;11.25;;;8.23;;
60665;SDS011;59128;44.642;21.188;2023-01-31T07:01:14;11.07;;;8.05;;
60665;SDS011;59128;44.642;21.188;2023-01-31T07:03:40;14.63;;;8.48;;
60665;SDS011;59128;44.642;21.188;2023-01-31T07:06:07;12.45;;;8.68;;
60665;SDS011;59128;44.642;21.188;2023-01-31T07:08:35;12.32;;;8.13;;
60665;SDS011;59128;44.642;21.188;2023-01-31T07:11:01;12.57;;;8.40;;
60665;SDS011;59128;44.642;21.188;2023-01-31T07:13:27;13.20;;;8.52;;
60665;SDS011;59128;44.642;21.188;2023-01-31T07:15:56;12.07;;;7.80;;
60665;SDS011;59128;44.642;21.188;2023-01-31T07:18:22;12.52;;;8.60;;
60665;SDS011;59128;44.642;21.188;2023-01-31T07:20:48;11.90;;;8.77;;
60665;SDS011;59128;44.642;21.188;2023-01-31T07:23:15;13.68;;;9.65;;
60665;SDS011;59128;44.642;21.188;2023-01-31T07:25:41;13.03;;;8.90;;
60665;SDS011;59128;44.642;21.188;2023-01-31T07:28:07;12.52;;;9.07;;
60665;SDS011;59128;44.642;21.188;2023-01-31T07:30:33;11.65;;;8.45;;
60665;SDS011;59128;44.642;21.188;2023-01-31T07:32:59;12.55;;;9.15;;
60665;SDS011;59128;44.642;21.188;2023-01-31T07:35:26;11.25;;;8.45;;
60665;SDS011;59128;44.642;21.188;2023-01-31T07:37:52;12.45;;;9.00;;
60665;SDS011;59128;44.642;21.188;2023-01-31T07:40:18;11.47;;;8.83;;
60665;SDS011;59128;44.642;21.188;2023-01-31T07:42:44;12.18;;;8.88;;
60665;SDS011;59128;44.642;21.188;2023-01-31T07:45:11;13.57;;;8.75;;
60665;SDS011;59128;44.642;21.188;2023-01-31T07:47:38;11.50;;;8.45;;
60665;SDS011;59128;44.642;21.188;2023-01-31T07:50:04;12.07;;;8.70;;
60665;SDS011;59128;44.642;21.188;2023-01-31T07:52:30;10.45;;;7.68;;
60665;SDS011;59128;44.642;21.188;2023-01-31T07:54:56;13.85;;;8.40;;
60665;SDS011;59128;44.642;21.188;2023-01-31T07:57:22;10.65;;;8.00;;
60665;SDS011;59128;44.642;21.188;2023-01-31T07:59:48;10.93;;;7.78;;
60665;SDS011;59128;44.642;21.188;2023-01-31T08:02:15;11.50;;;7.57;;
60665;SDS011;59128;44.642;21.188;2023-01-31T08:05:00;11.93;;;7.77;;
60665;SDS011;59128;44.642;21.188;2023-01-31T08:07:26;9.95;;;7.15;;
60665;SDS011;59128;44.642;21.188;2023-01-31T08:09:52;9.98;;;7.25;;
60665;SDS011;59128;44.642;21.188;2023-01-31T08:12:18;10.23;;;7.33;;
60665;SDS011;59128;44.642;21.188;2023-01-31T08:14:45;9.85;;;7.10;;
60665;SDS011;59128;44.642;21.188;2023-01-31T08:17:11;9.17;;;6.97;;
60665;SDS011;59128;44.642;21.188;2023-01-31T08:19:37;10.35;;;7.50;;
60665;SDS011;59128;44.642;21.188;2023-01-31T08:22:03;10.18;;;7.22;;
60665;SDS011;59128;44.642;21.188;2023-01-31T08:24:30;12.80;;;8.80;;
60665;SDS011;59128;44.642;21.188;2023-01-31T08:26:56;10.32;;;7.20;;
60665;SDS011;59128;44.642;21.188;2023-01-31T08:29:22;8.52;;;6.03;;
60665;SDS011;59128;44.642;21.188;2023-01-31T08:31:48;8.77;;;6.18;;
60665;SDS011;59128;44.642;21.188;2023-01-31T08:34:14;9.17;;;6.40;;
60665;SDS011;59128;44.642;21.188;2023-01-31T08:36:40;6.35;;;4.68;;
60665;SDS011;59128;44.642;21.188;2023-01-31T08:39:07;10.52;;;7.20;;
60665;SDS011;59128;44.642;21.188;2023-01-31T08:41:33;7.30;;;5.00;;
60665;SDS011;59128;44.642;21.188;2023-01-31T08:44:00;5.85;;;4.45;;
60665;SDS011;59128;44.642;21.188;2023-01-31T08:46:28;6.30;;;4.30;;
60665;SDS011;59128;44.642;21.188;2023-01-31T08:48:54;6.00;;;4.10;;
60665;SDS011;59128;44.642;21.188;2023-01-31T08:51:21;6.10;;;3.97;;
60665;SDS011;59128;44.642;21.188;2023-01-31T08:53:47;5.60;;;3.93;;
60665;SDS011;59128;44.642;21.188;2023-01-31T08:56:13;6.10;;;4.07;;
60665;SDS011;59128;44.642;21.188;2023-01-31T08:58:40;8.37;;;5.10;;
60665;SDS011;59128;44.642;21.188;2023-01-31T09:01:08;8.65;;;5.40;;
60665;SDS011;59128;44.642;21.188;2023-01-31T09:03:34;7.45;;;4.80;;
60665;SDS011;59128;44.642;21.188;2023-01-31T09:06:01;5.47;;;4.10;;
60665;SDS011;59128;44.642;21.188;2023-01-31T09:08:28;6.40;;;4.03;;
60665;SDS011;59128;44.642;21.188;2023-01-31T09:10:54;6.30;;;4.25;;
60665;SDS011;59128;44.642;21.188;2023-01-31T09:13:21;6.60;;;4.50;;
60665;SDS011;59128;44.642;21.188;2023-01-31T09:15:56;6.57;;;4.57;;
60665;SDS011;59128;44.642;21.188;2023-01-31T09:18:22;6.45;;;4.32;;
60665;SDS011;59128;44.642;21.188;2023-01-31T09:20:48;5.50;;;4.30;;
60665;SDS011;59128;44.642;21.188;2023-01-31T09:23:14;6.72;;;4.25;;
60665;SDS011;59128;44.642;21.188;2023-01-31T09:25:40;6.47;;;4.10;;
60665;SDS011;59128;44.642;21.188;2023-01-31T09:28:06;6.67;;;4.53;;
60665;SDS011;59128;44.642;21.188;2023-01-31T09:30:32;5.10;;;4.00;;
60665;SDS011;59128;44.642;21.188;2023-01-31T09:32:58;5.90;;;3.83;;
60665;SDS011;59128;44.642;21.188;2023-01-31T09:35:25;6.57;;;3.90;;
60665;SDS011;59128;44.642;21.188;2023-01-31T09:37:52;6.70;;;3.63;;
60665;SDS011;59128;44.642;21.188;2023-01-31T09:40:21;5.95;;;3.70;;
60665;SDS011;59128;44.642;21.188;2023-01-31T09:42:49;7.88;;;4.60;;
60665;SDS011;59128;44.642;21.188;2023-01-31T09:45:24;6.53;;;4.20;;
60665;SDS011;59128;44.642;21.188;2023-01-31T09:47:52;6.80;;;4.00;;
60665;SDS011;59128;44.642;21.188;2023-01-31T09:50:29;4.88;;;3.50;;
60665;SDS011;59128;44.642;21.188;2023-01-31T09:52:56;7.88;;;4.32;;
60665;SDS011;59128;44.642;21.188;2023-01-31T10:00:46;5.60;;;3.77;;
60665;SDS011;59128;44.642;21.188;2023-01-31T10:08:14;5.85;;;4.30;;
60665;SDS011;59128;44.642;21.188;2023-01-31T10:10:44;6.05;;;4.00;;
60665;SDS011;59128;44.642;21.188;2023-01-31T10:13:30;6.07;;;4.18;;
60665;SDS011;59128;44.642;21.188;2023-01-31T10:18:45;6.50;;;4.00;;
60665;SDS011;59128;44.642;21.188;2023-01-31T10:21:13;5.93;;;3.92;;
60665;SDS011;59128;44.642;21.188;2023-01-31T10:23:43;6.78;;;4.20;;
60665;SDS011;59128;44.642;21.188;2023-01-31T10:26:29;6.63;;;3.90;;
60665;SDS011;59128;44.642;21.188;2023-01-31T10:31:41;6.28;;;3.60;;
60665;SDS011;59128;44.642;21.188;2023-01-31T10:34:10;5.13;;;3.70;;
60665;SDS011;59128;44.642;21.188;2023-01-31T10:36:45;5.90;;;4.00;;
60665;SDS011;59128;44.642;21.188;2023-01-31T10:39:17;5.75;;;3.97;;
60665;SDS011;59128;44.642;21.188;2023-01-31T10:44:51;5.38;;;3.50;;
60665;SDS011;59128;44.642;21.188;2023-01-31T10:47:10;5.33;;;3.63;;
60665;SDS011;59128;44.642;21.188;2023-01-31T10:49:36;5.40;;;3.75;;
60665;SDS011;59128;44.642;21.188;2023-01-31T10:52:26;6.03;;;3.50;;
60665;SDS011;59128;44.642;21.188;2023-01-31T10:55:03;5.68;;;3.65;;
60665;SDS011;59128;44.642;21.188;2023-01-31T10:57:32;5.63;;;3.50;;
60665;SDS011;59128;44.642;21.188;2023-01-31T10:59:58;5.60;;;3.17;;
60665;SDS011;59128;44.642;21.188;2023-01-31T11:02:25;5.23;;;3.80;;
60665;SDS011;59128;44.642;21.188;2023-01-31T11:04:53;7.53;;;4.22;;
60665;SDS011;59128;44.642;21.188;2023-01-31T11:07:20;4.72;;;3.97;;
60665;SDS011;59128;44.642;21.188;2023-01-31T11:09:50;7.03;;;4.22;;
60665;SDS011;59128;44.642;21.188;2023-01-31T11:12:18;6.53;;;4.30;;
60665;SDS011;59128;44.642;21.188;2023-01-31T11:14:44;6.40;;;4.38;;
60665;SDS011;59128;44.642;21.188;2023-01-31T11:17:14;5.50;;;3.78;;
60665;SDS011;59128;44.642;21.188;2023-01-31T11:19:45;4.83;;;3.30;;
60665;SDS011;59128;44.642;21.188;2023-01-31T11:22:21;6.60;;;4.18;;
60665;SDS011;59128;44.642;21.188;2023-01-31T11:24:49;5.65;;;3.67;;
60665;SDS011;59128;44.642;21.188;2023-01-31T11:27:25;6.13;;;3.40;;
60665;SDS011;59128;44.642;21.188;2023-01-31T11:29:52;6.90;;;3.33;;
60665;SDS011;59128;44.642;21.188;2023-01-31T11:32:23;7.25;;;3.40;;
60665;SDS011;59128;44.642;21.188;2023-01-31T11:34:57;7.03;;;4.75;;
60665;SDS011;59128;44.642;21.188;2023-01-31T11:37:23;5.57;;;3.60;;
60665;SDS011;59128;44.642;21.188;2023-01-31T11:39:53;5.27;;;3.17;;
60665;SDS011;59128;44.642;21.188;2023-01-31T11:42:20;5.38;;;3.00;;
60665;SDS011;59128;44.642;21.188;2023-01-31T11:45:15;6.50;;;3.70;;
60665;SDS011;59128;44.642;21.188;2023-01-31T11:47:42;7.82;;;4.07;;
60665;SDS011;59128;44.642;21.188;2023-01-31T11:50:22;5.80;;;3.10;;
60665;SDS011;59128;44.642;21.188;2023-01-31T11:52:55;5.75;;;2.97;;
60665;SDS011;59128;44.642;21.188;2023-01-31T11:55:21;4.68;;;2.83;;
60665;SDS011;59128;44.642;21.188;2023-01-31T11:57:52;6.17;;;3.20;;
60665;SDS011;59128;44.642;21.188;2023-01-31T12:00:20;4.63;;;3.08;;
60665;SDS011;59128;44.642;21.188;2023-01-31T12:02:49;7.28;;;3.20;;
60665;SDS011;59128;44.642;21.188;2023-01-31T12:05:18;6.90;;;3.10;;
60665;SDS011;59128;44.642;21.188;2023-01-31T12:07:45;5.00;;;2.60;;
60665;SDS011;59128;44.642;21.188;2023-01-31T12:10:24;5.18;;;2.53;;
60665;SDS011;59128;44.642;21.188;2023-01-31T12:12:51;5.43;;;2.80;;
60665;SDS011;59128;44.642;21.188;2023-01-31T12:15:17;5.85;;;2.70;;
60665;SDS011;59128;44.642;21.188;2023-01-31T12:17:44;5.88;;;2.97;;
60665;SDS011;59128;44.642;21.188;2023-01-31T12:22:38;7.50;;;4.50;;
60665;SDS011;59128;44.642;21.188;2023-01-31T12:25:18;8.55;;;4.47;;
60665;SDS011;59128;44.642;21.188;2023-01-31T12:35:43;6.97;;;3.10;;
60665;SDS011;59128;44.642;21.188;2023-01-31T12:56:36;5.80;;;3.67;;
60665;SDS011;59128;44.642;21.188;2023-01-31T13:04:26;6.30;;;3.47;;
60665;SDS011;59128;44.642;21.188;2023-01-31T13:06:58;6.18;;;3.70;;
60665;SDS011;59128;44.642;21.188;2023-01-31T13:09:34;7.22;;;3.90;;
60665;SDS011;59128;44.642;21.188;2023-01-31T13:12:11;6.78;;;4.60;;
60665;SDS011;59128;44.642;21.188;2023-01-31T13:14:43;8.48;;;4.95;;
60665;SDS011;59128;44.642;21.188;2023-01-31T13:17:13;7.40;;;5.00;;
60665;SDS011;59128;44.642;21.188;2023-01-31T13:19:53;7.65;;;5.18;;
60665;SDS011;59128;44.642;21.188;2023-01-31T13:22:20;8.90;;;4.67;;
60665;SDS011;59128;44.642;21.188;2023-01-31T13:24:48;5.93;;;3.90;;
60665;SDS011;59128;44.642;21.188;2023-01-31T13:27:22;6.67;;;3.23;;
60665;SDS011;59128;44.642;21.188;2023-01-31T13:34:44;4.68;;;2.40;;
60665;SDS011;59128;44.642;21.188;2023-01-31T13:37:13;4.50;;;2.50;;
60665;SDS011;59128;44.642;21.188;2023-01-31T13:40:06;3.00;;;2.00;;
60665;SDS011;59128;44.642;21.188;2023-01-31T13:42:38;4.90;;;2.00;;
60665;SDS011;59128;44.642;21.188;2023-01-31T13:45:05;3.47;;;1.80;;
60665;SDS011;59128;44.642;21.188;2023-01-31T13:47:43;4.10;;;2.10;;
60665;SDS011;59128;44.642;21.188;2023-01-31T13:52:46;5.00;;;2.35;;
60665;SDS011;59128;44.642;21.188;2023-01-31T13:55:21;4.00;;;1.65;;
60665;SDS011;59128;44.642;21.188;2023-01-31T13:58:48;3.30;;;1.83;;
60665;SDS011;59128;44.642;21.188;2023-01-31T14:00:43;4.05;;;2.40;;
60665;SDS011;59128;44.642;21.188;2023-01-31T14:03:11;3.97;;;1.87;;
60665;SDS011;59128;44.642;21.188;2023-01-31T14:10:51;2.38;;;1.50;;
60665;SDS011;59128;44.642;21.188;2023-01-31T14:15:59;1.33;;;0.90;;
60665;SDS011;59128;44.642;21.188;2023-01-31T14:18:42;3.47;;;1.40;;
60665;SDS011;59128;44.642;21.188;2023-01-31T14:23:54;2.47;;;0.80;;
60665;SDS011;59128;44.642;21.188;2023-01-31T14:29:47;4.65;;;2.50;;
60665;SDS011;59128;44.642;21.188;2023-01-31T14:31:54;3.15;;;1.52;;
60665;SDS011;59128;44.642;21.188;2023-01-31T14:34:22;1.85;;;1.15;;
60665;SDS011;59128;44.642;21.188;2023-01-31T14:40:21;2.70;;;1.30;;
60665;SDS011;59128;44.642;21.188;2023-01-31T14:52:33;2.85;;;1.60;;
60665;SDS011;59128;44.642;21.188;2023-01-31T14:57:46;3.67;;;1.88;;
60665;SDS011;59128;44.642;21.188;2023-01-31T15:02:41;3.25;;;2.15;;
60665;SDS011;59128;44.642;21.188;2023-01-31T15:05:10;2.45;;;1.60;;
60665;SDS011;59128;44.642;21.188;2023-01-31T15:07:56;4.85;;;3.40;;
60665;SDS011;59128;44.642;21.188;2023-01-31T15:15:53;1.45;;;1.10;;
60665;SDS011;59128;44.642;21.188;2023-01-31T15:18:19;2.20;;;1.38;;
60665;SDS011;59128;44.642;21.188;2023-01-31T15:20:49;2.88;;;1.60;;
60665;SDS011;59128;44.642;21.188;2023-01-31T15:23:21;3.25;;;1.70;;
60665;SDS011;59128;44.642;21.188;2023-01-31T15:25:48;3.47;;;1.80;;
60665;SDS011;59128;44.642;21.188;2023-01-31T15:28:19;2.10;;;1.70;;
60665;SDS011;59128;44.642;21.188;2023-01-31T15:30:46;3.27;;;1.90;;
60665;SDS011;59128;44.642;21.188;2023-01-31T15:33:29;2.15;;;1.40;;
60665;SDS011;59128;44.642;21.188;2023-01-31T15:38:40;5.35;;;2.30;;
60665;SDS011;59128;44.642;21.188;2023-01-31T15:43:44;4.47;;;2.23;;
60665;SDS011;59128;44.642;21.188;2023-01-31T15:49:26;7.00;;;2.40;;
60665;SDS011;59128;44.642;21.188;2023-01-31T15:52:02;4.25;;;2.22;;
60665;SDS011;59128;44.642;21.188;2023-01-31T15:54:28;4.70;;;2.50;;
60665;SDS011;59128;44.642;21.188;2023-01-31T15:56:54;4.28;;;2.10;;
60665;SDS011;59128;44.642;21.188;2023-01-31T15:59:20;4.22;;;1.90;;
60665;SDS011;59128;44.642;21.188;2023-01-31T16:01:47;4.47;;;2.40;;
60665;SDS011;59128;44.642;21.188;2023-01-31T16:04:13;4.30;;;2.78;;
60665;SDS011;59128;44.642;21.188;2023-01-31T16:06:39;3.63;;;2.45;;
60665;SDS011;59128;44.642;21.188;2023-01-31T16:09:06;5.75;;;2.63;;
60665;SDS011;59128;44.642;21.188;2023-01-31T16:11:34;5.05;;;2.83;;
60665;SDS011;59128;44.642;21.188;2023-01-31T16:14:03;4.25;;;2.90;;
60665;SDS011;59128;44.642;21.188;2023-01-31T16:16:29;4.53;;;2.38;;
60665;SDS011;59128;44.642;21.188;2023-01-31T16:18:58;3.20;;;1.77;;
60665;SDS011;59128;44.642;21.188;2023-01-31T16:21:32;3.08;;;1.85;;
60665;SDS011;59128;44.642;21.188;2023-01-31T16:24:16;3.70;;;1.70;;
60665;SDS011;59128;44.642;21.188;2023-01-31T16:29:29;6.65;;;3.17;;
60665;SDS011;59128;44.642;21.188;2023-01-31T16:31:58;6.70;;;4.22;;
60665;SDS011;59128;44.642;21.188;2023-01-31T16:36:57;8.93;;;5.13;;
60665;SDS011;59128;44.642;21.188;2023-01-31T16:41:53;12.38;;;9.77;;
60665;SDS011;59128;44.642;21.188;2023-01-31T16:44:22;14.85;;;11.05;;
60665;SDS011;59128;44.642;21.188;2023-01-31T16:46:51;17.67;;;13.50;;
60665;SDS011;59128;44.642;21.188;2023-01-31T16:49:24;21.48;;;14.80;;
60665;SDS011;59128;44.642;21.188;2023-01-31T16:51:55;22.52;;;16.13;;
60665;SDS011;59128;44.642;21.188;2023-01-31T16:54:22;24.48;;;17.75;;
60665;SDS011;59128;44.642;21.188;2023-01-31T17:04:43;24.43;;;17.03;;
60665;SDS011;59128;44.642;21.188;2023-01-31T17:07:18;23.33;;;15.77;;
60665;SDS011;59128;44.642;21.188;2023-01-31T17:09:44;20.15;;;13.82;;